sensor_id;sensor_type;location;lat;lon;timestamp;pressure;altitude;pressure_sealevel;temperature;humidity
64352;BME280;50680;52.626;-8.668;2024-01-16T00:02:03;101529.25;;;-1.26;100.00
64352;BME280;50680;52.626;-8.668;2024-01-16T00:04:30;101528.38;;;-1.26;100.00
64352;BME280;50680;52.626;-8.668;2024-01-16T00:06:58;101517.22;;;-1.27;100.00
64352;BME280;50680;52.626;-8.668;2024-01-16T00:09:25;101524.09;;;-1.27;100.00
64352;BME280;50680;52.626;-8.668;2024-01-16T00:11:52;101518.94;;;-1.26;100.00
64352;BME280;50680;52.626;-8.668;2024-01-16T00:14:19;101508.66;;;-1.27;100.00
64352;BME280;50680;52.626;-8.668;2024-01-16T00:16:46;101512.94;;;-1.28;100.00
64352;BME280;50680;52.626;-8.668;2024-01-16T00:19:14;101512.06;;;-1.35;100.00
64352;BME280;50680;52.626;-8.668;2024-01-16T00:21:42;101515.47;;;-1.40;100.00
64352;BME280;50680;52.626;-8.668;2024-01-16T00:24:15;101499.16;;;-1.52;100.00
64352;BME280;50680;52.626;-8.668;2024-01-16T00:26:43;101500.81;;;-1.63;100.00
64352;BME280;50680;52.626;-8.668;2024-01-16T00:29:11;101497.38;;;-1.74;100.00
64352;BME280;50680;52.626;-8.668;2024-01-16T00:31:39;101500.75;;;-1.81;100.00
64352;BME280;50680;52.626;-8.668;2024-01-16T00:34:07;101494.72;;;-1.88;100.00
64352;BME280;50680;52.626;-8.668;2024-01-16T00:36:34;101490.44;;;-1.87;100.00
64352;BME280;50680;52.626;-8.668;2024-01-16T00:39:01;101487.03;;;-1.86;100.00
64352;BME280;50680;52.626;-8.668;2024-01-16T00:41:29;101483.56;;;-1.92;100.00
64352;BME280;50680;52.626;-8.668;2024-01-16T00:43:56;101486.13;;;-1.96;100.00
64352;BME280;50680;52.626;-8.668;2024-01-16T00:46:23;101483.56;;;-1.95;100.00
64352;BME280;50680;52.626;-8.668;2024-01-16T00:48:50;101484.41;;;-1.94;100.00
64352;BME280;50680;52.626;-8.668;2024-01-16T00:51:18;101492.97;;;-1.97;100.00
64352;BME280;50680;52.626;-8.668;2024-01-16T00:53:45;101483.53;;;-2.04;100.00
64352;BME280;50680;52.626;-8.668;2024-01-16T00:56:12;101486.09;;;-2.05;100.00
64352;BME280;50680;52.626;-8.668;2024-01-16T00:58:39;101485.19;;;-2.11;100.00
64352;BME280;50680;52.626;-8.668;2024-01-16T01:01:06;101484.31;;;-2.16;100.00
64352;BME280;50680;52.626;-8.668;2024-01-16T01:03:35;101474.84;;;-2.23;100.00
64352;BME280;50680;52.626;-8.668;2024-01-16T01:06:02;101473.97;;;-2.28;100.00
64352;BME280;50680;52.626;-8.668;2024-01-16T01:08:30;101467.06;;;-2.32;100.00
64352;BME280;50680;52.626;-8.668;2024-01-16T01:10:57;101467.91;;;-2.36;100.00
64352;BME280;50680;52.626;-8.668;2024-01-16T01:13:24;101461.91;;;-2.41;100.00
64352;BME280;50680;52.626;-8.668;2024-01-16T01:15:52;101458.44;;;-2.48;100.00
64352;BME280;50680;52.626;-8.668;2024-01-16T01:18:19;101450.69;;;-2.51;100.00
64352;BME280;50680;52.626;-8.668;2024-01-16T01:20:47;101449.81;;;-2.55;100.00
64352;BME280;50680;52.626;-8.668;2024-01-16T01:23:14;101448.94;;;-2.58;100.00
64352;BME280;50680;52.626;-8.668;2024-01-16T01:25:41;101450.63;;;-2.63;100.00
64352;BME280;50680;52.626;-8.668;2024-01-16T01:28:10;101438.66;;;-2.63;100.00
64352;BME280;50680;52.626;-8.668;2024-01-16T01:30:37;101436.91;;;-2.66;100.00
64352;BME280;50680;52.626;-8.668;2024-01-16T01:33:05;101428.31;;;-2.71;100.00
64352;BME280;50680;52.626;-8.668;2024-01-16T01:35:32;101435.19;;;-2.71;100.00
64352;BME280;50680;52.626;-8.668;2024-01-16T01:37:59;101430.88;;;-2.74;100.00
64352;BME280;50680;52.626;-8.668;2024-01-16T01:40:26;101423.13;;;-2.77;100.00
64352;BME280;50680;52.626;-8.668;2024-01-16T01:42:54;101424.84;;;-2.79;100.00
64352;BME280;50680;52.626;-8.668;2024-01-16T01:45:21;101408.59;;;-2.81;100.00
64352;BME280;50680;52.626;-8.668;2024-01-16T01:47:49;101394.88;;;-2.83;100.00
64352;BME280;50680;52.626;-8.668;2024-01-16T01:50:16;101384.63;;;-2.81;100.00
64352;BME280;50680;52.626;-8.668;2024-01-16T01:52:44;101381.22;;;-2.79;100.00
64352;BME280;50680;52.626;-8.668;2024-01-16T01:55:13;101377.00;;;-2.69;100.00
64352;BME280;50680;52.626;-8.668;2024-01-16T01:57:41;101374.47;;;-2.65;100.00
64352;BME280;50680;52.626;-8.668;2024-01-16T02:00:10;101383.91;;;-2.60;100.00
64352;BME280;50680;52.626;-8.668;2024-01-16T02:02:39;101384.78;;;-2.55;100.00
64352;BME280;50680;52.626;-8.668;2024-01-16T02:05:07;101380.50;;;-2.55;100.00
64352;BME280;50680;52.626;-8.668;2024-01-16T02:07:34;101380.50;;;-2.61;100.00
64352;BME280;50680;52.626;-8.668;2024-01-16T02:10:02;101386.44;;;-2.68;100.00
64352;BME280;50680;52.626;-8.668;2024-01-16T02:12:30;101387.22;;;-2.74;100.00
64352;BME280;50680;52.626;-8.668;2024-01-16T02:14:57;101382.97;;;-2.75;100.00
64352;BME280;50680;52.626;-8.668;2024-01-16T02:17:24;101385.53;;;-2.76;100.00
64352;BME280;50680;52.626;-8.668;2024-01-16T02:19:52;101378.66;;;-2.79;100.00
64352;BME280;50680;52.626;-8.668;2024-01-16T02:22:20;101380.38;;;-2.78;100.00
64352;BME280;50680;52.626;-8.668;2024-01-16T02:24:50;101382.06;;;-2.77;100.00
64352;BME280;50680;52.626;-8.668;2024-01-16T02:27:18;101368.41;;;-2.76;100.00
64352;BME280;50680;52.626;-8.668;2024-01-16T02:29:45;101373.53;;;-2.76;100.00
64352;BME280;50680;52.626;-8.668;2024-01-16T02:32:13;101371.84;;;-2.74;100.00
64352;BME280;50680;52.626;-8.668;2024-01-16T02:34:40;101368.38;;;-2.79;100.00
64352;BME280;50680;52.626;-8.668;2024-01-16T02:37:08;101370.06;;;-2.87;100.00
64352;BME280;50680;52.626;-8.668;2024-01-16T02:39:35;101369.16;;;-2.95;100.00
64352;BME280;50680;52.626;-8.668;2024-01-16T02:42:02;101362.25;;;-3.03;100.00
64352;BME280;50680;52.626;-8.668;2024-01-16T02:44:30;101357.97;;;-3.04;100.00
64352;BME280;50680;52.626;-8.668;2024-01-16T02:46:57;101345.16;;;-3.02;100.00
64352;BME280;50680;52.626;-8.668;2024-01-16T02:49:24;101352.88;;;-2.97;100.00
64352;BME280;50680;52.626;-8.668;2024-01-16T02:51:53;101351.19;;;-2.91;100.00
64352;BME280;50680;52.626;-8.668;2024-01-16T02:54:22;101348.69;;;-2.83;100.00
64352;BME280;50680;52.626;-8.668;2024-01-16T02:56:49;101336.72;;;-2.81;100.00
64352;BME280;50680;52.626;-8.668;2024-01-16T02:59:16;101329.06;;;-2.76;100.00
64352;BME280;50680;52.626;-8.668;2024-01-16T03:01:43;101332.47;;;-2.82;100.00
64352;BME280;50680;52.626;-8.668;2024-01-16T03:04:10;101320.41;;;-2.91;100.00
64352;BME280;50680;52.626;-8.668;2024-01-16T03:06:38;101327.22;;;-2.94;100.00
64352;BME280;50680;52.626;-8.668;2024-01-16T03:09:05;101332.31;;;-3.02;100.00
64352;BME280;50680;52.626;-8.668;2024-01-16T03:11:33;101334.00;;;-3.06;100.00
64352;BME280;50680;52.626;-8.668;2024-01-16T03:14:01;101329.72;;;-3.05;100.00
64352;BME280;50680;52.626;-8.668;2024-01-16T03:16:29;101332.31;;;-3.04;100.00
64352;BME280;50680;52.626;-8.668;2024-01-16T03:18:56;101330.59;;;-3.02;100.00
64352;BME280;50680;52.626;-8.668;2024-01-16T03:21:23;101319.44;;;-3.08;100.00
64352;BME280;50680;52.626;-8.668;2024-01-16T03:23:50;101321.13;;;-3.12;100.00
64352;BME280;50680;52.626;-8.668;2024-01-16T03:26:17;101316.81;;;-3.19;100.00
64352;BME280;50680;52.626;-8.668;2024-01-16T03:28:44;101311.69;;;-3.21;100.00
64352;BME280;50680;52.626;-8.668;2024-01-16T03:31:13;101304.78;;;-3.28;100.00
64352;BME280;50680;52.626;-8.668;2024-01-16T03:33:41;101298.75;;;-3.36;100.00
64352;BME280;50680;52.626;-8.668;2024-01-16T03:36:10;101295.25;;;-3.43;100.00
64352;BME280;50680;52.626;-8.668;2024-01-16T03:38:38;101301.28;;;-3.41;100.00
64352;BME280;50680;52.626;-8.668;2024-01-16T03:41:05;101302.97;;;-3.46;100.00
64352;BME280;50680;52.626;-8.668;2024-01-16T03:43:34;101291.78;;;-3.54;100.00
64352;BME280;50680;52.626;-8.668;2024-01-16T03:46:01;101278.91;;;-3.60;100.00
64352;BME280;50680;52.626;-8.668;2024-01-16T03:48:28;101286.59;;;-3.59;100.00
64352;BME280;50680;52.626;-8.668;2024-01-16T03:50:56;101288.38;;;-3.53;100.00
64352;BME280;50680;52.626;-8.668;2024-01-16T03:53:23;101284.06;;;-3.57;100.00
64352;BME280;50680;52.626;-8.668;2024-01-16T03:55:50;101289.16;;;-3.63;100.00
64352;BME280;50680;52.626;-8.668;2024-01-16T03:58:17;101283.13;;;-3.70;100.00
64352;BME280;50680;52.626;-8.668;2024-01-16T04:00:45;101282.19;;;-3.76;100.00
64352;BME280;50680;52.626;-8.668;2024-01-16T04:03:12;101282.13;;;-3.83;100.00
64352;BME280;50680;52.626;-8.668;2024-01-16T04:05:40;101278.66;;;-3.89;100.00
64352;BME280;50680;52.626;-8.668;2024-01-16T04:08:07;101271.78;;;-3.95;100.00
64352;BME280;50680;52.626;-8.668;2024-01-16T04:10:34;101272.59;;;-3.99;100.00
64352;BME280;50680;52.626;-8.668;2024-01-16T04:13:02;101258.03;;;-4.06;100.00
64352;BME280;50680;52.626;-8.668;2024-01-16T04:15:29;101264.84;;;-4.05;100.00
64352;BME280;50680;52.626;-8.668;2024-01-16T04:17:56;101264.00;;;-4.06;100.00
64352;BME280;50680;52.626;-8.668;2024-01-16T04:20:24;101259.72;;;-4.07;100.00
64352;BME280;50680;52.626;-8.668;2024-01-16T04:22:51;101257.19;;;-4.02;100.00
64352;BME280;50680;52.626;-8.668;2024-01-16T04:25:18;101242.66;;;-4.03;100.00
64352;BME280;50680;52.626;-8.668;2024-01-16T04:27:45;101244.34;;;-4.07;100.00
64352;BME280;50680;52.626;-8.668;2024-01-16T04:30:13;101246.00;;;-4.10;100.00
64352;BME280;50680;52.626;-8.668;2024-01-16T04:32:40;101250.25;;;-4.14;100.00
64352;BME280;50680;52.626;-8.668;2024-01-16T04:35:08;101244.25;;;-4.18;100.00
64352;BME280;50680;52.626;-8.668;2024-01-16T04:37:35;101244.22;;;-4.21;100.00
64352;BME280;50680;52.626;-8.668;2024-01-16T04:40:03;101233.06;;;-4.26;100.00
64352;BME280;50680;52.626;-8.668;2024-01-16T04:42:32;101238.25;;;-4.21;100.00
64352;BME280;50680;52.626;-8.668;2024-01-16T04:45:00;101240.81;;;-4.20;100.00
64352;BME280;50680;52.626;-8.668;2024-01-16T04:47:27;101243.34;;;-4.21;100.00
64352;BME280;50680;52.626;-8.668;2024-01-16T04:49:54;101240.88;;;-4.15;100.00
64352;BME280;50680;52.626;-8.668;2024-01-16T04:52:21;101229.78;;;-4.14;100.00
64352;BME280;50680;52.626;-8.668;2024-01-16T04:54:48;101222.13;;;-4.09;100.00
64352;BME280;50680;52.626;-8.668;2024-01-16T04:57:15;101213.66;;;-4.04;100.00
64352;BME280;50680;52.626;-8.668;2024-01-16T04:59:42;101214.50;;;-4.02;100.00
64352;BME280;50680;52.626;-8.668;2024-01-16T05:02:10;101213.72;;;-3.96;100.00
64352;BME280;50680;52.626;-8.668;2024-01-16T05:04:37;101199.19;;;-3.97;100.00
64352;BME280;50680;52.626;-8.668;2024-01-16T05:07:05;101188.03;;;-4.04;100.00
64352;BME280;50680;52.626;-8.668;2024-01-16T05:09:32;101199.19;;;-3.97;100.00
64352;BME280;50680;52.626;-8.668;2024-01-16T05:11:59;101188.94;;;-3.97;100.00
64352;BME280;50680;52.626;-8.668;2024-01-16T05:14:26;101184.66;;;-3.98;100.00
64352;BME280;50680;52.626;-8.668;2024-01-16T05:16:54;101176.09;;;-4.00;100.00
64352;BME280;50680;52.626;-8.668;2024-01-16T05:19:21;101174.38;;;-4.04;100.00
64352;BME280;50680;52.626;-8.668;2024-01-16T05:21:48;101161.53;;;-4.09;100.00
64352;BME280;50680;52.626;-8.668;2024-01-16T05:24:15;101157.25;;;-4.11;100.00
64352;BME280;50680;52.626;-8.668;2024-01-16T05:26:42;101149.53;;;-4.16;100.00
64352;BME280;50680;52.626;-8.668;2024-01-16T05:29:09;101143.53;;;-4.20;100.00
64352;BME280;50680;52.626;-8.668;2024-01-16T05:31:42;101146.16;;;-4.13;100.00
64352;BME280;50680;52.626;-8.668;2024-01-16T05:34:10;101146.06;;;-4.21;100.00
64352;BME280;50680;52.626;-8.668;2024-01-16T05:36:37;101141.78;;;-4.25;100.00
64352;BME280;50680;52.626;-8.668;2024-01-16T05:39:05;101137.47;;;-4.32;100.00
64352;BME280;50680;52.626;-8.668;2024-01-16T05:41:35;101124.66;;;-4.31;100.00
64352;BME280;50680;52.626;-8.668;2024-01-16T05:44:02;101128.03;;;-4.35;100.00
64352;BME280;50680;52.626;-8.668;2024-01-16T05:46:32;101124.63;;;-4.36;100.00
64352;BME280;50680;52.626;-8.668;2024-01-16T05:49:00;101116.97;;;-4.34;100.00
64352;BME280;50680;52.626;-8.668;2024-01-16T05:51:28;101118.69;;;-4.31;100.00
64352;BME280;50680;52.626;-8.668;2024-01-16T05:53:56;101102.47;;;-4.32;100.00
64352;BME280;50680;52.626;-8.668;2024-01-16T05:56:23;101092.25;;;-4.30;100.00
64352;BME280;50680;52.626;-8.668;2024-01-16T05:58:50;101095.69;;;-4.27;100.00
64352;BME280;50680;52.626;-8.668;2024-01-16T06:01:19;101099.16;;;-4.20;100.00
64352;BME280;50680;52.626;-8.668;2024-01-16T06:03:46;101101.72;;;-4.17;100.00
64352;BME280;50680;52.626;-8.668;2024-01-16T06:06:16;101102.59;;;-4.17;100.00
64352;BME280;50680;52.626;-8.668;2024-01-16T06:08:43;101098.31;;;-4.16;100.00
64352;BME280;50680;52.626;-8.668;2024-01-16T06:11:10;101097.50;;;-4.15;100.00
64352;BME280;50680;52.626;-8.668;2024-01-16T06:13:40;101082.13;;;-4.17;100.00
64352;BME280;50680;52.626;-8.668;2024-01-16T06:16:08;101081.28;;;-4.12;100.00
64352;BME280;50680;52.626;-8.668;2024-01-16T06:18:35;101078.69;;;-4.16;100.00
64352;BME280;50680;52.626;-8.668;2024-01-16T06:21:03;101076.97;;;-4.20;100.00
64352;BME280;50680;52.626;-8.668;2024-01-16T06:23:30;101071.00;;;-4.16;100.00
64352;BME280;50680;52.626;-8.668;2024-01-16T06:25:59;101062.50;;;-4.13;100.00
64352;BME280;50680;52.626;-8.668;2024-01-16T06:28:27;101057.38;;;-4.13;100.00
64352;BME280;50680;52.626;-8.668;2024-01-16T06:30:54;101040.28;;;-4.14;100.00
64352;BME280;50680;52.626;-8.668;2024-01-16T06:33:21;101042.00;;;-4.16;100.00
64352;BME280;50680;52.626;-8.668;2024-01-16T06:35:49;101047.91;;;-4.25;100.00
64352;BME280;50680;52.626;-8.668;2024-01-16T06:38:19;101045.31;;;-4.29;100.00
64352;BME280;50680;52.626;-8.668;2024-01-16T06:40:47;101041.84;;;-4.36;100.00
64352;BME280;50680;52.626;-8.668;2024-01-16T06:43:15;101045.22;;;-4.42;100.00
64352;BME280;50680;52.626;-8.668;2024-01-16T06:45:43;101040.97;;;-4.44;100.00
64352;BME280;50680;52.626;-8.668;2024-01-16T06:48:10;101040.97;;;-4.40;100.00
64352;BME280;50680;52.626;-8.668;2024-01-16T06:50:38;101039.31;;;-4.31;100.00
64352;BME280;50680;52.626;-8.668;2024-01-16T06:53:05;101032.59;;;-4.19;100.00
64352;BME280;50680;52.626;-8.668;2024-01-16T06:55:33;101025.91;;;-4.00;100.00
64352;BME280;50680;52.626;-8.668;2024-01-16T06:58:00;101025.13;;;-3.82;100.00
64352;BME280;50680;52.626;-8.668;2024-01-16T07:00:27;101025.19;;;-3.65;100.00
64352;BME280;50680;52.626;-8.668;2024-01-16T07:02:54;101027.75;;;-3.59;100.00
64352;BME280;50680;52.626;-8.668;2024-01-16T07:05:21;101028.66;;;-3.50;100.00
64352;BME280;50680;52.626;-8.668;2024-01-16T07:07:49;101026.13;;;-3.46;100.00
64352;BME280;50680;52.626;-8.668;2024-01-16T07:10:16;101034.66;;;-3.37;100.00
64352;BME280;50680;52.626;-8.668;2024-01-16T07:12:49;101025.28;;;-3.37;100.00
64352;BME280;50680;52.626;-8.668;2024-01-16T07:15:16;101024.44;;;-3.33;100.00
64352;BME280;50680;52.626;-8.668;2024-01-16T07:17:43;101021.03;;;-3.27;100.00
64352;BME280;50680;52.626;-8.668;2024-01-16T07:20:10;101015.91;;;-3.23;100.00
64352;BME280;50680;52.626;-8.668;2024-01-16T07:22:38;101013.34;;;-3.24;100.00
64352;BME280;50680;52.626;-8.668;2024-01-16T07:25:08;101022.72;;;-3.37;100.00
64352;BME280;50680;52.626;-8.668;2024-01-16T07:27:35;101024.41;;;-3.53;100.00
64352;BME280;50680;52.626;-8.668;2024-01-16T07:30:06;101022.66;;;-3.63;100.00
64352;BME280;50680;52.626;-8.668;2024-01-16T07:32:34;101018.28;;;-3.87;100.00
64352;BME280;50680;52.626;-8.668;2024-01-16T07:35:02;101025.06;;;-3.89;100.00
64352;BME280;50680;52.626;-8.668;2024-01-16T07:37:30;101025.91;;;-3.92;100.00
64352;BME280;50680;52.626;-8.668;2024-01-16T07:39:57;101019.94;;;-3.89;100.00
64352;BME280;50680;52.626;-8.668;2024-01-16T07:42:24;101011.38;;;-3.93;100.00
64352;BME280;50680;52.626;-8.668;2024-01-16T07:44:51;101012.22;;;-4.00;100.00
64352;BME280;50680;52.626;-8.668;2024-01-16T07:47:18;101019.03;;;-4.02;100.00
64352;BME280;50680;52.626;-8.668;2024-01-16T07:49:46;101009.66;;;-3.99;100.00
64352;BME280;50680;52.626;-8.668;2024-01-16T07:52:14;101008.81;;;-3.93;100.00
64352;BME280;50680;52.626;-8.668;2024-01-16T07:54:41;101007.13;;;-3.88;100.00
64352;BME280;50680;52.626;-8.668;2024-01-16T07:57:08;101012.28;;;-3.85;100.00
64352;BME280;50680;52.626;-8.668;2024-01-16T07:59:35;101008.84;;;-3.90;100.00
64352;BME280;50680;52.626;-8.668;2024-01-16T08:02:02;101001.16;;;-3.91;100.00
64352;BME280;50680;52.626;-8.668;2024-01-16T08:04:29;100993.47;;;-3.96;100.00
64352;BME280;50680;52.626;-8.668;2024-01-16T08:06:56;100993.47;;;-3.93;100.00
64352;BME280;50680;52.626;-8.668;2024-01-16T08:09:23;100981.53;;;-3.89;100.00
64352;BME280;50680;52.626;-8.668;2024-01-16T08:11:51;100991.84;;;-3.79;100.00
64352;BME280;50680;52.626;-8.668;2024-01-16T08:14:18;100980.72;;;-3.78;100.00
64352;BME280;50680;52.626;-8.668;2024-01-16T08:16:45;100970.50;;;-3.74;100.00
64352;BME280;50680;52.626;-8.668;2024-01-16T08:19:13;100966.25;;;-3.66;100.00
64352;BME280;50680;52.626;-8.668;2024-01-16T08:21:40;100968.81;;;-3.66;100.00
64352;BME280;50680;52.626;-8.668;2024-01-16T08:24:07;100971.38;;;-3.60;100.00
64352;BME280;50680;52.626;-8.668;2024-01-16T08:26:34;100979.94;;;-3.58;100.00
64352;BME280;50680;52.626;-8.668;2024-01-16T08:29:01;100974.81;;;-3.55;100.00
64352;BME280;50680;52.626;-8.668;2024-01-16T08:31:28;100972.28;;;-3.49;100.00
64352;BME280;50680;52.626;-8.668;2024-01-16T08:33:56;100967.16;;;-3.47;100.00
64352;BME280;50680;52.626;-8.668;2024-01-16T08:36:24;100968.88;;;-3.48;100.00
64352;BME280;50680;52.626;-8.668;2024-01-16T08:38:51;100968.81;;;-3.59;100.00
64352;BME280;50680;52.626;-8.668;2024-01-16T08:41:18;100971.34;;;-3.69;100.00
64352;BME280;50680;52.626;-8.668;2024-01-16T08:43:46;100967.06;;;-3.78;100.00
64352;BME280;50680;52.626;-8.668;2024-01-16T08:46:13;100969.63;;;-3.75;100.00
64352;BME280;50680;52.626;-8.668;2024-01-16T08:48:40;100968.78;;;-3.77;100.00
64352;BME280;50680;52.626;-8.668;2024-01-16T08:51:10;100968.78;;;-3.74;100.00
64352;BME280;50680;52.626;-8.668;2024-01-16T08:53:41;100967.94;;;-3.65;100.00
64352;BME280;50680;52.626;-8.668;2024-01-16T08:56:09;100963.69;;;-3.65;100.00
64352;BME280;50680;52.626;-8.668;2024-01-16T08:58:39;100962.84;;;-3.67;100.00
64352;BME280;50680;52.626;-8.668;2024-01-16T09:01:07;100961.13;;;-3.60;100.00
64352;BME280;50680;52.626;-8.668;2024-01-16T09:03:35;100949.19;;;-3.60;100.00
64352;BME280;50680;52.626;-8.668;2024-01-16T09:06:03;100947.50;;;-3.44;100.00
64352;BME280;50680;52.626;-8.668;2024-01-16T09:08:30;100942.41;;;-3.34;100.00
64352;BME280;50680;52.626;-8.668;2024-01-16T09:10:58;100939.84;;;-3.17;100.00
64352;BME280;50680;52.626;-8.668;2024-01-16T09:13:25;100933.88;;;-2.93;100.00
64352;BME280;50680;52.626;-8.668;2024-01-16T09:15:52;100933.84;;;-2.72;100.00
64352;BME280;50680;52.626;-8.668;2024-01-16T09:18:19;100925.28;;;-2.52;100.00
64352;BME280;50680;52.626;-8.668;2024-01-16T09:20:47;100931.22;;;-2.38;100.00
64352;BME280;50680;52.626;-8.668;2024-01-16T09:23:15;100926.06;;;-2.24;100.00
64352;BME280;50680;52.626;-8.668;2024-01-16T09:25:42;100926.00;;;-2.13;100.00
64352;BME280;50680;52.626;-8.668;2024-01-16T09:28:13;100934.53;;;-1.97;100.00
64352;BME280;50680;52.626;-8.668;2024-01-16T09:30:42;100932.75;;;-1.84;100.00
64352;BME280;50680;52.626;-8.668;2024-01-16T09:33:09;100933.53;;;-1.73;100.00
64352;BME280;50680;52.626;-8.668;2024-01-16T09:35:37;100928.34;;;-1.61;100.00
64352;BME280;50680;52.626;-8.668;2024-01-16T09:38:04;100929.97;;;-1.49;100.00
64352;BME280;50680;52.626;-8.668;2024-01-16T09:40:34;100926.50;;;-1.40;100.00
64352;BME280;50680;52.626;-8.668;2024-01-16T09:43:02;100923.00;;;-1.30;100.00
64352;BME280;50680;52.626;-8.668;2024-01-16T09:45:31;100922.06;;;-1.18;100.00
64352;BME280;50680;52.626;-8.668;2024-01-16T09:47:59;100916.81;;;-1.06;100.00
64352;BME280;50680;52.626;-8.668;2024-01-16T09:50:27;100911.53;;;-0.92;100.00
64352;BME280;50680;52.626;-8.668;2024-01-16T09:52:54;100914.81;;;-0.74;100.00
64352;BME280;50680;52.626;-8.668;2024-01-16T09:55:25;100910.38;;;-0.57;100.00
64352;BME280;50680;52.626;-8.668;2024-01-16T09:57:52;100904.16;;;-0.39;100.00
64352;BME280;50680;52.626;-8.668;2024-01-16T10:00:20;100912.53;;;-0.18;100.00
64352;BME280;50680;52.626;-8.668;2024-01-16T10:02:48;100902.03;;;-0.03;100.00
64352;BME280;50680;52.626;-8.668;2024-01-16T10:05:17;100898.47;;;0.09;100.00
64352;BME280;50680;52.626;-8.668;2024-01-16T10:07:44;100887.19;;;0.16;100.00
64352;BME280;50680;52.626;-8.668;2024-01-16T10:10:11;100891.25;;;0.31;100.00
64352;BME280;50680;52.626;-8.668;2024-01-16T10:12:39;100890.19;;;0.46;100.00
64352;BME280;50680;52.626;-8.668;2024-01-16T10:15:07;100883.91;;;0.62;100.00
64352;BME280;50680;52.626;-8.668;2024-01-16T10:17:36;100864.84;;;0.71;100.00
64352;BME280;50680;52.626;-8.668;2024-01-16T10:20:04;100863.78;;;0.84;100.00
64352;BME280;50680;52.626;-8.668;2024-01-16T10:22:32;100853.25;;;0.95;100.00
64352;BME280;50680;52.626;-8.668;2024-01-16T10:25:10;100846.16;;;1.09;100.00
64352;BME280;50680;52.626;-8.668;2024-01-16T10:27:40;100832.19;;;1.20;100.00
64352;BME280;50680;52.626;-8.668;2024-01-16T10:30:07;100830.97;;;1.38;100.00
64352;BME280;50680;52.626;-8.668;2024-01-16T10:32:36;100830.63;;;1.56;100.00
64352;BME280;50680;52.626;-8.668;2024-01-16T10:35:09;100830.41;;;1.67;100.00
64352;BME280;50680;52.626;-8.668;2024-01-16T10:37:52;100819.28;;;1.63;100.00
64352;BME280;50680;52.626;-8.668;2024-01-16T10:40:21;100821.72;;;1.69;100.00
64352;BME280;50680;52.626;-8.668;2024-01-16T10:42:59;100828.41;;;1.80;100.00
64352;BME280;50680;52.626;-8.668;2024-01-16T10:45:27;100826.34;;;1.96;100.00
64352;BME280;50680;52.626;-8.668;2024-01-16T10:48:15;100825.34;;;2.03;100.00
64352;BME280;50680;52.626;-8.668;2024-01-16T10:50:43;100819.97;;;2.11;100.00
64352;BME280;50680;52.626;-8.668;2024-01-16T10:53:13;100815.41;;;2.22;100.00
64352;BME280;50680;52.626;-8.668;2024-01-16T10:55:52;100807.34;;;2.36;100.00
64352;BME280;50680;52.626;-8.668;2024-01-16T10:58:22;100808.03;;;2.42;100.00
64352;BME280;50680;52.626;-8.668;2024-01-16T11:00:52;100809.69;;;2.45;100.00
64352;BME280;50680;52.626;-8.668;2024-01-16T11:03:27;100801.78;;;2.51;100.00
64352;BME280;50680;52.626;-8.668;2024-01-16T11:05:57;100797.25;;;2.59;100.00
64352;BME280;50680;52.626;-8.668;2024-01-16T11:08:25;100791.31;;;2.56;100.00
64352;BME280;50680;52.626;-8.668;2024-01-16T11:11:01;100789.59;;;2.56;100.00
64352;BME280;50680;52.626;-8.668;2024-01-16T11:13:34;100796.44;;;2.57;100.00
64352;BME280;50680;52.626;-8.668;2024-01-16T11:16:03;100787.03;;;2.55;100.00
64352;BME280;50680;52.626;-8.668;2024-01-16T11:18:34;100780.13;;;2.55;100.00
64352;BME280;50680;52.626;-8.668;2024-01-16T11:21:07;100780.03;;;2.58;100.00
64352;BME280;50680;52.626;-8.668;2024-01-16T11:23:41;100776.41;;;2.66;100.00
64352;BME280;50680;52.626;-8.668;2024-01-16T11:26:28;100775.56;;;2.65;100.00
64352;BME280;50680;52.626;-8.668;2024-01-16T11:28:56;100771.88;;;2.74;100.00
64352;BME280;50680;52.626;-8.668;2024-01-16T11:31:33;100772.72;;;2.74;100.00
64352;BME280;50680;52.626;-8.668;2024-01-16T11:34:02;100769.03;;;2.83;100.00
64352;BME280;50680;52.626;-8.668;2024-01-16T11:36:52;100773.41;;;2.81;100.00
64352;BME280;50680;52.626;-8.668;2024-01-16T11:39:24;100769.78;;;2.88;100.00
64352;BME280;50680;52.626;-8.668;2024-01-16T11:44:49;100764.34;;;2.97;100.00
64352;BME280;50680;52.626;-8.668;2024-01-16T11:47:22;100755.44;;;3.08;100.00
64352;BME280;50680;52.626;-8.668;2024-01-16T11:49:52;100751.84;;;3.13;100.00
64352;BME280;50680;52.626;-8.668;2024-01-16T11:52:44;100754.19;;;3.21;100.00
64352;BME280;50680;52.626;-8.668;2024-01-16T11:55:34;100748.94;;;3.24;100.00
64352;BME280;50680;52.626;-8.668;2024-01-16T12:01:05;100733.66;;;3.45;100.00
64352;BME280;50680;52.626;-8.668;2024-01-16T12:03:32;100735.97;;;3.54;100.00
64352;BME280;50680;52.626;-8.668;2024-01-16T12:06:02;100718.28;;;3.67;100.00
64352;BME280;50680;52.626;-8.668;2024-01-16T12:08:30;100721.38;;;3.80;100.00
64352;BME280;50680;52.626;-8.668;2024-01-16T12:10:58;100711.50;;;3.91;100.00
64352;BME280;50680;52.626;-8.668;2024-01-16T12:13:26;100713.03;;;3.98;100.00
64352;BME280;50680;52.626;-8.668;2024-01-16T12:16:03;100698.94;;;4.05;100.00
64352;BME280;50680;52.626;-8.668;2024-01-16T12:18:33;100700.44;;;4.12;100.00
64352;BME280;50680;52.626;-8.668;2024-01-16T12:21:10;100697.63;;;4.19;100.00
64352;BME280;50680;52.626;-8.668;2024-01-16T12:23:38;100686.16;;;4.26;100.00
64352;BME280;50680;52.626;-8.668;2024-01-16T12:26:22;100677.47;;;4.27;100.00
64352;BME280;50680;52.626;-8.668;2024-01-16T12:28:53;100675.09;;;4.46;100.00
64352;BME280;50680;52.626;-8.668;2024-01-16T12:31:27;100677.69;;;4.71;100.00
64352;BME280;50680;52.626;-8.668;2024-01-16T12:34:11;100682.00;;;4.96;100.00
64352;BME280;50680;52.626;-8.668;2024-01-16T12:36:38;100672.38;;;5.21;100.00
64352;BME280;50680;52.626;-8.668;2024-01-16T12:39:05;100675.78;;;5.23;100.00
64352;BME280;50680;52.626;-8.668;2024-01-16T12:41:43;100659.41;;;5.43;100.00
64352;BME280;50680;52.626;-8.668;2024-01-16T12:44:12;100647.94;;;5.49;100.00
64352;BME280;50680;52.626;-8.668;2024-01-16T12:46:53;100632.88;;;5.57;100.00